sensor_id;sensor_type;location;lat;lon;timestamp;P1;durP1;ratioP1;P2;durP2;ratioP2
12956;SDS011;6543;48.836;10.092;2023-09-19T00:01:39;0.80;;;0.80;;
12956;SDS011;6543;48.836;10.092;2023-09-19T00:04:07;1.73;;;0.73;;
12956;SDS011;6543;48.836;10.092;2023-09-19T00:06:34;0.77;;;0.77;;
12956;SDS011;6543;48.836;10.092;2023-09-19T00:09:03;1.33;;;0.80;;
12956;SDS011;6543;48.836;10.092;2023-09-19T00:11:29;1.00;;;0.60;;
12956;SDS011;6543;48.836;10.092;2023-09-19T00:13:57;2.00;;;0.63;;
12956;SDS011;6543;48.836;10.092;2023-09-19T00:16:24;0.90;;;0.67;;
12956;SDS011;6543;48.836;10.092;2023-09-19T00:18:52;1.00;;;0.60;;
12956;SDS011;6543;48.836;10.092;2023-09-19T00:21:20;2.97;;;0.60;;
12956;SDS011;6543;48.836;10.092;2023-09-19T00:23:47;2.43;;;1.20;;
12956;SDS011;6543;48.836;10.092;2023-09-19T00:26:14;1.40;;;0.70;;
12956;SDS011;6543;48.836;10.092;2023-09-19T00:28:43;1.30;;;0.70;;
12956;SDS011;6543;48.836;10.092;2023-09-19T00:31:10;1.37;;;0.70;;
12956;SDS011;6543;48.836;10.092;2023-09-19T00:33:36;1.30;;;0.70;;
12956;SDS011;6543;48.836;10.092;2023-09-19T00:36:03;0.70;;;0.60;;
12956;SDS011;6543;48.836;10.092;2023-09-19T00:38:32;1.60;;;0.80;;
12956;SDS011;6543;48.836;10.092;2023-09-19T00:40:59;0.73;;;0.60;;
12956;SDS011;6543;48.836;10.092;2023-09-19T00:43:25;0.67;;;0.60;;
12956;SDS011;6543;48.836;10.092;2023-09-19T00:45:53;1.10;;;0.57;;
12956;SDS011;6543;48.836;10.092;2023-09-19T00:48:22;2.37;;;0.70;;
12956;SDS011;6543;48.836;10.092;2023-09-19T00:50:50;3.30;;;0.73;;
12956;SDS011;6543;48.836;10.092;2023-09-19T00:53:19;0.80;;;0.80;;
12956;SDS011;6543;48.836;10.092;2023-09-19T00:55:49;1.13;;;0.87;;
12956;SDS011;6543;48.836;10.092;2023-09-19T00:58:16;0.60;;;0.60;;
12956;SDS011;6543;48.836;10.092;2023-09-19T01:00:44;0.73;;;0.73;;
12956;SDS011;6543;48.836;10.092;2023-09-19T01:03:11;1.37;;;0.70;;
12956;SDS011;6543;48.836;10.092;2023-09-19T01:05:39;1.73;;;0.70;;
12956;SDS011;6543;48.836;10.092;2023-09-19T01:08:07;1.30;;;0.70;;
12956;SDS011;6543;48.836;10.092;2023-09-19T01:10:36;1.67;;;0.63;;
12956;SDS011;6543;48.836;10.092;2023-09-19T01:13:13;2.10;;;0.60;;
12956;SDS011;6543;48.836;10.092;2023-09-19T01:15:54;1.00;;;0.70;;
12956;SDS011;6543;48.836;10.092;2023-09-19T01:18:31;1.03;;;0.60;;
12956;SDS011;6543;48.836;10.092;2023-09-19T01:21:08;1.83;;;1.00;;
12956;SDS011;6543;48.836;10.092;2023-09-19T01:23:52;1.73;;;0.50;;
12956;SDS011;6543;48.836;10.092;2023-09-19T01:26:54;1.33;;;0.90;;
12956;SDS011;6543;48.836;10.092;2023-09-19T01:29:34;1.03;;;0.50;;
12956;SDS011;6543;48.836;10.092;2023-09-19T01:32:06;2.70;;;0.80;;
12956;SDS011;6543;48.836;10.092;2023-09-19T01:34:45;1.17;;;0.50;;
12956;SDS011;6543;48.836;10.092;2023-09-19T01:37:13;1.13;;;0.70;;
12956;SDS011;6543;48.836;10.092;2023-09-19T01:39:44;0.93;;;0.60;;
12956;SDS011;6543;48.836;10.092;2023-09-19T01:42:16;0.97;;;0.63;;
12956;SDS011;6543;48.836;10.092;2023-09-19T01:44:51;0.67;;;0.60;;
12956;SDS011;6543;48.836;10.092;2023-09-19T01:47:28;0.80;;;0.80;;
12956;SDS011;6543;48.836;10.092;2023-09-19T01:50:01;1.27;;;0.70;;
12956;SDS011;6543;48.836;10.092;2023-09-19T01:52:43;0.90;;;0.53;;
12956;SDS011;6543;48.836;10.092;2023-09-19T01:55:15;2.47;;;0.83;;
12956;SDS011;6543;48.836;10.092;2023-09-19T01:57:48;0.70;;;0.60;;
12956;SDS011;6543;48.836;10.092;2023-09-19T02:00:20;1.53;;;0.60;;
12956;SDS011;6543;48.836;10.092;2023-09-19T02:02:51;1.00;;;0.80;;
12956;SDS011;6543;48.836;10.092;2023-09-19T02:05:24;0.60;;;0.60;;
12956;SDS011;6543;48.836;10.092;2023-09-19T02:07:53;1.20;;;0.60;;
12956;SDS011;6543;48.836;10.092;2023-09-19T02:10:20;0.97;;;0.40;;
12956;SDS011;6543;48.836;10.092;2023-09-19T02:12:47;0.87;;;0.67;;
12956;SDS011;6543;48.836;10.092;2023-09-19T02:15:15;1.03;;;0.40;;
12956;SDS011;6543;48.836;10.092;2023-09-19T02:17:42;0.70;;;0.40;;
12956;SDS011;6543;48.836;10.092;2023-09-19T02:20:12;3.77;;;0.80;;
12956;SDS011;6543;48.836;10.092;2023-09-19T02:22:41;0.77;;;0.50;;
12956;SDS011;6543;48.836;10.092;2023-09-19T02:25:09;0.83;;;0.47;;
12956;SDS011;6543;48.836;10.092;2023-09-19T02:27:37;1.70;;;0.60;;
12956;SDS011;6543;48.836;10.092;2023-09-19T02:30:05;0.40;;;0.40;;
12956;SDS011;6543;48.836;10.092;2023-09-19T02:32:33;0.30;;;0.30;;
12956;SDS011;6543;48.836;10.092;2023-09-19T02:35:04;0.93;;;0.57;;
12956;SDS011;6543;48.836;10.092;2023-09-19T02:37:34;0.83;;;0.50;;
12956;SDS011;6543;48.836;10.092;2023-09-19T02:40:01;1.20;;;0.53;;
12956;SDS011;6543;48.836;10.092;2023-09-19T02:42:44;1.07;;;0.40;;
12956;SDS011;6543;48.836;10.092;2023-09-19T02:45:14;0.83;;;0.43;;
12956;SDS011;6543;48.836;10.092;2023-09-19T02:47:42;0.73;;;0.40;;
12956;SDS011;6543;48.836;10.092;2023-09-19T02:50:10;2.20;;;0.63;;
12956;SDS011;6543;48.836;10.092;2023-09-19T02:52:40;1.47;;;0.70;;
12956;SDS011;6543;48.836;10.092;2023-09-19T02:55:09;1.73;;;0.40;;
12956;SDS011;6543;48.836;10.092;2023-09-19T02:57:36;1.83;;;0.50;;
12956;SDS011;6543;48.836;10.092;2023-09-19T03:00:06;0.87;;;0.53;;
12956;SDS011;6543;48.836;10.092;2023-09-19T03:02:35;0.87;;;0.50;;
12956;SDS011;6543;48.836;10.092;2023-09-19T03:05:05;1.03;;;0.50;;
12956;SDS011;6543;48.836;10.092;2023-09-19T03:07:33;1.57;;;0.80;;
12956;SDS011;6543;48.836;10.092;2023-09-19T03:10:04;0.50;;;0.50;;
12956;SDS011;6543;48.836;10.092;2023-09-19T03:12:32;0.60;;;0.60;;
12956;SDS011;6543;48.836;10.092;2023-09-19T03:15:00;3.47;;;0.80;;
12956;SDS011;6543;48.836;10.092;2023-09-19T03:17:27;2.57;;;1.10;;
12956;SDS011;6543;48.836;10.092;2023-09-19T03:19:53;2.40;;;0.60;;
12956;SDS011;6543;48.836;10.092;2023-09-19T03:22:22;0.70;;;0.70;;
12956;SDS011;6543;48.836;10.092;2023-09-19T03:24:51;1.60;;;1.00;;
12956;SDS011;6543;48.836;10.092;2023-09-19T03:27:19;0.73;;;0.40;;
12956;SDS011;6543;48.836;10.092;2023-09-19T03:29:47;1.80;;;0.67;;
12956;SDS011;6543;48.836;10.092;2023-09-19T03:32:14;0.93;;;0.50;;
12956;SDS011;6543;48.836;10.092;2023-09-19T03:34:41;1.03;;;0.67;;
12956;SDS011;6543;48.836;10.092;2023-09-19T03:37:08;0.50;;;0.50;;
12956;SDS011;6543;48.836;10.092;2023-09-19T03:39:36;0.60;;;0.60;;
12956;SDS011;6543;48.836;10.092;2023-09-19T03:42:03;1.90;;;0.80;;
12956;SDS011;6543;48.836;10.092;2023-09-19T03:44:33;0.50;;;0.50;;
12956;SDS011;6543;48.836;10.092;2023-09-19T03:47:00;1.80;;;1.03;;
12956;SDS011;6543;48.836;10.092;2023-09-19T03:49:32;0.83;;;0.57;;
12956;SDS011;6543;48.836;10.092;2023-09-19T03:52:00;0.93;;;0.80;;
12956;SDS011;6543;48.836;10.092;2023-09-19T03:54:27;0.80;;;0.60;;
12956;SDS011;6543;48.836;10.092;2023-09-19T03:56:54;1.13;;;1.00;;
12956;SDS011;6543;48.836;10.092;2023-09-19T03:59:21;2.00;;;0.90;;
12956;SDS011;6543;48.836;10.092;2023-09-19T04:01:52;0.93;;;0.63;;
12956;SDS011;6543;48.836;10.092;2023-09-19T04:04:22;0.67;;;0.67;;
12956;SDS011;6543;48.836;10.092;2023-09-19T04:06:50;1.50;;;0.90;;
12956;SDS011;6543;48.836;10.092;2023-09-19T04:09:17;1.07;;;0.63;;
12956;SDS011;6543;48.836;10.092;2023-09-19T04:11:44;1.97;;;0.73;;
12956;SDS011;6543;48.836;10.092;2023-09-19T04:14:11;0.63;;;0.60;;
12956;SDS011;6543;48.836;10.092;2023-09-19T04:16:38;1.33;;;0.70;;
12956;SDS011;6543;48.836;10.092;2023-09-19T04:19:06;1.83;;;0.90;;
12956;SDS011;6543;48.836;10.092;2023-09-19T04:21:33;0.93;;;0.83;;
12956;SDS011;6543;48.836;10.092;2023-09-19T04:24:00;1.23;;;0.90;;
12956;SDS011;6543;48.836;10.092;2023-09-19T04:26:28;1.63;;;0.80;;
12956;SDS011;6543;48.836;10.092;2023-09-19T04:28:55;1.10;;;0.67;;
12956;SDS011;6543;48.836;10.092;2023-09-19T04:31:23;2.07;;;0.60;;
12956;SDS011;6543;48.836;10.092;2023-09-19T04:33:50;1.90;;;0.83;;
12956;SDS011;6543;48.836;10.092;2023-09-19T04:36:19;0.80;;;0.80;;
12956;SDS011;6543;48.836;10.092;2023-09-19T04:38:47;1.40;;;0.60;;
12956;SDS011;6543;48.836;10.092;2023-09-19T04:41:15;1.10;;;0.80;;
12956;SDS011;6543;48.836;10.092;2023-09-19T04:43:42;2.10;;;0.87;;
12956;SDS011;6543;48.836;10.092;2023-09-19T04:46:09;2.00;;;0.83;;
12956;SDS011;6543;48.836;10.092;2023-09-19T04:48:39;0.73;;;0.50;;
12956;SDS011;6543;48.836;10.092;2023-09-19T04:51:06;2.20;;;0.80;;
12956;SDS011;6543;48.836;10.092;2023-09-19T04:53:35;1.17;;;0.70;;
12956;SDS011;6543;48.836;10.092;2023-09-19T04:56:02;2.07;;;0.73;;
12956;SDS011;6543;48.836;10.092;2023-09-19T04:58:29;2.80;;;0.77;;
12956;SDS011;6543;48.836;10.092;2023-09-19T05:00:56;1.93;;;0.70;;
12956;SDS011;6543;48.836;10.092;2023-09-19T05:03:22;2.50;;;0.83;;
12956;SDS011;6543;48.836;10.092;2023-09-19T05:05:49;2.83;;;1.50;;
12956;SDS011;6543;48.836;10.092;2023-09-19T05:08:16;0.70;;;0.60;;
12956;SDS011;6543;48.836;10.092;2023-09-19T05:10:44;0.97;;;0.80;;
12956;SDS011;6543;48.836;10.092;2023-09-19T05:13:12;4.07;;;1.10;;
12956;SDS011;6543;48.836;10.092;2023-09-19T05:15:39;2.13;;;0.90;;
12956;SDS011;6543;48.836;10.092;2023-09-19T05:18:06;2.47;;;1.00;;
12956;SDS011;6543;48.836;10.092;2023-09-19T05:20:33;0.73;;;0.73;;
12956;SDS011;6543;48.836;10.092;2023-09-19T05:23:03;2.77;;;0.90;;
12956;SDS011;6543;48.836;10.092;2023-09-19T05:25:33;1.63;;;0.80;;
12956;SDS011;6543;48.836;10.092;2023-09-19T05:28:04;1.33;;;0.70;;
12956;SDS011;6543;48.836;10.092;2023-09-19T05:30:32;1.10;;;1.00;;
12956;SDS011;6543;48.836;10.092;2023-09-19T05:33:01;1.58;;;0.98;;
12956;SDS011;6543;48.836;10.092;2023-09-19T05:35:29;1.10;;;0.70;;
12956;SDS011;6543;48.836;10.092;2023-09-19T05:37:57;1.10;;;0.70;;
12956;SDS011;6543;48.836;10.092;2023-09-19T05:40:24;0.80;;;0.80;;
12956;SDS011;6543;48.836;10.092;2023-09-19T05:42:52;2.53;;;0.90;;
12956;SDS011;6543;48.836;10.092;2023-09-19T05:45:20;2.57;;;0.90;;
12956;SDS011;6543;48.836;10.092;2023-09-19T05:47:48;0.80;;;0.80;;
12956;SDS011;6543;48.836;10.092;2023-09-19T05:50:16;3.30;;;0.90;;
12956;SDS011;6543;48.836;10.092;2023-09-19T05:52:47;2.60;;;0.80;;
12956;SDS011;6543;48.836;10.092;2023-09-19T05:55:17;2.33;;;1.03;;
12956;SDS011;6543;48.836;10.092;2023-09-19T05:57:43;1.10;;;0.70;;
12956;SDS011;6543;48.836;10.092;2023-09-19T06:00:16;2.63;;;1.60;;
12956;SDS011;6543;48.836;10.092;2023-09-19T06:02:45;2.57;;;1.27;;
12956;SDS011;6543;48.836;10.092;2023-09-19T06:05:15;1.40;;;1.20;;
12956;SDS011;6543;48.836;10.092;2023-09-19T06:07:41;1.80;;;0.70;;
12956;SDS011;6543;48.836;10.092;2023-09-19T06:10:08;2.00;;;0.80;;
12956;SDS011;6543;48.836;10.092;2023-09-19T06:12:37;1.27;;;0.80;;
12956;SDS011;6543;48.836;10.092;2023-09-19T06:15:05;2.67;;;0.90;;
12956;SDS011;6543;48.836;10.092;2023-09-19T06:17:33;1.03;;;0.60;;
12956;SDS011;6543;48.836;10.092;2023-09-19T06:20:04;1.13;;;0.83;;
12956;SDS011;6543;48.836;10.092;2023-09-19T06:22:37;1.00;;;0.90;;
12956;SDS011;6543;48.836;10.092;2023-09-19T06:25:06;3.13;;;1.10;;
12956;SDS011;6543;48.836;10.092;2023-09-19T06:27:36;3.47;;;1.00;;
12956;SDS011;6543;48.836;10.092;2023-09-19T06:30:04;2.30;;;0.80;;
12956;SDS011;6543;48.836;10.092;2023-09-19T06:32:33;1.30;;;0.90;;
12956;SDS011;6543;48.836;10.092;2023-09-19T06:35:00;1.30;;;0.90;;
12956;SDS011;6543;48.836;10.092;2023-09-19T06:37:29;1.47;;;1.00;;
12956;SDS011;6543;48.836;10.092;2023-09-19T06:39:56;1.10;;;0.73;;
12956;SDS011;6543;48.836;10.092;2023-09-19T06:42:23;1.97;;;0.83;;
12956;SDS011;6543;48.836;10.092;2023-09-19T06:44:50;4.57;;;1.00;;
12956;SDS011;6543;48.836;10.092;2023-09-19T06:47:18;0.83;;;0.80;;
12956;SDS011;6543;48.836;10.092;2023-09-19T06:49:45;1.63;;;1.13;;
12956;SDS011;6543;48.836;10.092;2023-09-19T06:52:13;1.37;;;1.17;;
12956;SDS011;6543;48.836;10.092;2023-09-19T06:54:42;2.53;;;1.17;;
12956;SDS011;6543;48.836;10.092;2023-09-19T06:57:09;3.20;;;0.90;;
12956;SDS011;6543;48.836;10.092;2023-09-19T06:59:36;1.97;;;1.10;;
12956;SDS011;6543;48.836;10.092;2023-09-19T07:02:17;1.13;;;0.90;;
12956;SDS011;6543;48.836;10.092;2023-09-19T07:04:54;0.70;;;0.70;;
12956;SDS011;6543;48.836;10.092;2023-09-19T07:07:30;1.07;;;0.80;;
12956;SDS011;6543;48.836;10.092;2023-09-19T07:10:01;3.80;;;1.07;;
12956;SDS011;6543;48.836;10.092;2023-09-19T07:12:31;2.43;;;0.97;;
12956;SDS011;6543;48.836;10.092;2023-09-19T07:14:59;0.90;;;0.80;;
12956;SDS011;6543;48.836;10.092;2023-09-19T07:17:29;1.10;;;1.00;;
12956;SDS011;6543;48.836;10.092;2023-09-19T07:19:58;3.30;;;1.30;;
12956;SDS011;6543;48.836;10.092;2023-09-19T07:22:25;1.23;;;1.13;;
12956;SDS011;6543;48.836;10.092;2023-09-19T07:24:54;1.80;;;1.23;;
12956;SDS011;6543;48.836;10.092;2023-09-19T07:27:37;2.13;;;1.40;;
12956;SDS011;6543;48.836;10.092;2023-09-19T07:30:04;2.23;;;1.20;;
12956;SDS011;6543;48.836;10.092;2023-09-19T07:32:33;2.90;;;1.57;;
12956;SDS011;6543;48.836;10.092;2023-09-19T07:35:01;1.83;;;1.50;;
12956;SDS011;6543;48.836;10.092;2023-09-19T07:37:29;1.47;;;1.37;;
12956;SDS011;6543;48.836;10.092;2023-09-19T07:39:56;3.60;;;1.40;;
12956;SDS011;6543;48.836;10.092;2023-09-19T07:42:38;2.67;;;1.67;;
12956;SDS011;6543;48.836;10.092;2023-09-19T07:45:06;2.80;;;1.23;;
12956;SDS011;6543;48.836;10.092;2023-09-19T07:47:34;3.23;;;1.47;;
12956;SDS011;6543;48.836;10.092;2023-09-19T07:50:01;1.87;;;1.53;;
12956;SDS011;6543;48.836;10.092;2023-09-19T07:52:28;3.83;;;1.70;;
12956;SDS011;6543;48.836;10.092;2023-09-19T07:54:55;1.20;;;1.10;;
12956;SDS011;6543;48.836;10.092;2023-09-19T07:57:22;2.80;;;1.47;;
12956;SDS011;6543;48.836;10.092;2023-09-19T07:59:51;3.20;;;1.63;;
12956;SDS011;6543;48.836;10.092;2023-09-19T08:02:21;2.30;;;1.20;;
12956;SDS011;6543;48.836;10.092;2023-09-19T08:04:48;3.30;;;1.40;;
12956;SDS011;6543;48.836;10.092;2023-09-19T08:07:17;3.47;;;1.83;;
12956;SDS011;6543;48.836;10.092;2023-09-19T08:09:48;4.33;;;1.83;;
12956;SDS011;6543;48.836;10.092;2023-09-19T08:12:29;3.67;;;1.80;;
12956;SDS011;6543;48.836;10.092;2023-09-19T08:15:05;3.50;;;1.50;;
12956;SDS011;6543;48.836;10.092;2023-09-19T08:17:35;2.57;;;1.23;;
12956;SDS011;6543;48.836;10.092;2023-09-19T08:20:02;4.77;;;1.33;;
12956;SDS011;6543;48.836;10.092;2023-09-19T08:22:30;3.53;;;1.63;;
12956;SDS011;6543;48.836;10.092;2023-09-19T08:24:58;3.77;;;1.70;;
12956;SDS011;6543;48.836;10.092;2023-09-19T08:27:26;5.27;;;1.60;;
12956;SDS011;6543;48.836;10.092;2023-09-19T08:30:03;3.33;;;1.40;;
12956;SDS011;6543;48.836;10.092;2023-09-19T08:32:31;2.10;;;1.30;;
12956;SDS011;6543;48.836;10.092;2023-09-19T08:35:02;8.30;;;1.90;;
12956;SDS011;6543;48.836;10.092;2023-09-19T08:37:34;2.17;;;1.60;;
12956;SDS011;6543;48.836;10.092;2023-09-19T08:40:01;7.47;;;1.80;;
12956;SDS011;6543;48.836;10.092;2023-09-19T08:42:46;5.37;;;2.00;;
12956;SDS011;6543;48.836;10.092;2023-09-19T08:45:15;4.87;;;1.90;;
12956;SDS011;6543;48.836;10.092;2023-09-19T08:47:45;2.90;;;1.50;;
12956;SDS011;6543;48.836;10.092;2023-09-19T08:50:18;3.93;;;1.83;;
12956;SDS011;6543;48.836;10.092;2023-09-19T08:52:54;4.10;;;1.40;;
12956;SDS011;6543;48.836;10.092;2023-09-19T08:55:23;2.23;;;1.70;;
12956;SDS011;6543;48.836;10.092;2023-09-19T08:57:58;5.13;;;1.80;;
12956;SDS011;6543;48.836;10.092;2023-09-19T09:00:30;7.93;;;1.73;;
12956;SDS011;6543;48.836;10.092;2023-09-19T09:02:58;2.63;;;1.50;;
12956;SDS011;6543;48.836;10.092;2023-09-19T09:05:27;2.40;;;1.40;;
12956;SDS011;6543;48.836;10.092;2023-09-19T09:07:55;3.70;;;1.77;;
12956;SDS011;6543;48.836;10.092;2023-09-19T09:10:22;5.13;;;1.80;;
12956;SDS011;6543;48.836;10.092;2023-09-19T09:12:51;4.07;;;1.27;;
12956;SDS011;6543;48.836;10.092;2023-09-19T09:15:21;1.90;;;1.50;;
12956;SDS011;6543;48.836;10.092;2023-09-19T09:17:51;5.93;;;2.00;;
12956;SDS011;6543;48.836;10.092;2023-09-19T09:20:20;1.90;;;1.43;;
12956;SDS011;6543;48.836;10.092;2023-09-19T09:22:50;2.27;;;1.47;;
12956;SDS011;6543;48.836;10.092;2023-09-19T09:25:19;4.03;;;1.90;;
12956;SDS011;6543;48.836;10.092;2023-09-19T09:27:52;6.87;;;2.07;;
12956;SDS011;6543;48.836;10.092;2023-09-19T09:30:32;2.93;;;1.53;;
12956;SDS011;6543;48.836;10.092;2023-09-19T09:33:09;3.57;;;1.70;;
12956;SDS011;6543;48.836;10.092;2023-09-19T09:35:46;6.07;;;1.80;;
12956;SDS011;6543;48.836;10.092;2023-09-19T09:38:26;17.77;;;3.10;;
12956;SDS011;6543;48.836;10.092;2023-09-19T09:41:15;7.70;;;1.90;;
12956;SDS011;6543;48.836;10.092;2023-09-19T09:44:12;7.63;;;1.93;;
12956;SDS011;6543;48.836;10.092;2023-09-19T09:46:42;3.37;;;1.37;;
12956;SDS011;6543;48.836;10.092;2023-09-19T09:49:48;11.20;;;2.23;;
12956;SDS011;6543;48.836;10.092;2023-09-19T09:52:31;5.27;;;1.63;;
12956;SDS011;6543;48.836;10.092;2023-09-19T09:55:11;2.97;;;1.40;;
12956;SDS011;6543;48.836;10.092;2023-09-19T09:57:38;5.43;;;1.87;;
12956;SDS011;6543;48.836;10.092;2023-09-19T10:00:07;8.30;;;1.90;;
12956;SDS011;6543;48.836;10.092;2023-09-19T10:02:45;3.93;;;1.50;;
12956;SDS011;6543;48.836;10.092;2023-09-19T10:05:15;6.17;;;2.13;;
12956;SDS011;6543;48.836;10.092;2023-09-19T10:07:52;1.27;;;1.13;;
12956;SDS011;6543;48.836;10.092;2023-09-19T10:10:29;6.43;;;1.80;;
12956;SDS011;6543;48.836;10.092;2023-09-19T10:13:04;2.15;;;1.23;;
12956;SDS011;6543;48.836;10.092;2023-09-19T10:15:33;2.93;;;2.10;;
12956;SDS011;6543;48.836;10.092;2023-09-19T10:18:01;3.40;;;1.60;;
12956;SDS011;6543;48.836;10.092;2023-09-19T10:20:35;3.05;;;1.80;;
12956;SDS011;6543;48.836;10.092;2023-09-19T10:23:06;2.70;;;1.83;;
12956;SDS011;6543;48.836;10.092;2023-09-19T10:25:36;3.43;;;1.70;;
12956;SDS011;6543;48.836;10.092;2023-09-19T10:28:05;3.10;;;1.80;;
12956;SDS011;6543;48.836;10.092;2023-09-19T10:30:36;2.75;;;1.65;;
12956;SDS011;6543;48.836;10.092;2023-09-19T10:33:09;5.37;;;1.90;;
12956;SDS011;6543;48.836;10.092;2023-09-19T10:35:38;2.55;;;1.70;;
12956;SDS011;6543;48.836;10.092;2023-09-19T10:38:09;3.97;;;1.50;;
12956;SDS011;6543;48.836;10.092;2023-09-19T10:40:38;4.47;;;1.85;;
12956;SDS011;6543;48.836;10.092;2023-09-19T10:43:11;3.45;;;1.60;;
12956;SDS011;6543;48.836;10.092;2023-09-19T10:45:42;2.05;;;1.00;;
12956;SDS011;6543;48.836;10.092;2023-09-19T10:48:11;2.60;;;1.20;;
12956;SDS011;6543;48.836;10.092;2023-09-19T10:50:43;9.75;;;1.45;;
12956;SDS011;6543;48.836;10.092;2023-09-19T10:53:14;3.13;;;1.58;;
12956;SDS011;6543;48.836;10.092;2023-09-19T10:55:47;2.80;;;1.25;;
12956;SDS011;6543;48.836;10.092;2023-09-19T10:58:28;4.03;;;1.40;;
12956;SDS011;6543;48.836;10.092;2023-09-19T11:00:59;4.82;;;1.52;;
12956;SDS011;6543;48.836;10.092;2023-09-19T11:03:37;2.47;;;1.33;;
12956;SDS011;6543;48.836;10.092;2023-09-19T11:06:11;2.78;;;1.60;;
12956;SDS011;6543;48.836;10.092;2023-09-19T11:08:51;2.53;;;1.30;;
12956;SDS011;6543;48.836;10.092;2023-09-19T11:11:55;1.75;;;1.55;;
12956;SDS011;6543;48.836;10.092;2023-09-19T11:20:19;2.25;;;1.40;;
12956;SDS011;6543;48.836;10.092;2023-09-19T11:23:25;2.03;;;1.57;;
12956;SDS011;6543;48.836;10.092;2023-09-19T11:26:02;4.27;;;1.60;;
12956;SDS011;6543;48.836;10.092;2023-09-19T11:28:30;6.50;;;1.50;;
12956;SDS011;6543;48.836;10.092;2023-09-19T11:30:57;2.70;;;1.25;;
12956;SDS011;6543;48.836;10.092;2023-09-19T11:33:25;1.42;;;1.25;;
12956;SDS011;6543;48.836;10.092;2023-09-19T11:36:03;2.55;;;1.23;;
12956;SDS011;6543;48.836;10.092;2023-09-19T11:41:40;1.65;;;1.10;;
12956;SDS011;6543;48.836;10.092;2023-09-19T11:47:08;2.22;;;1.20;;
12956;SDS011;6543;48.836;10.092;2023-09-19T11:49:36;3.13;;;1.30;;
12956;SDS011;6543;48.836;10.092;2023-09-19T11:52:07;1.45;;;1.27;;
12956;SDS011;6543;48.836;10.092;2023-09-19T11:54:40;2.15;;;1.08;;
12956;SDS011;6543;48.836;10.092;2023-09-19T11:57:10;3.08;;;1.27;;
12956;SDS011;6543;48.836;10.092;2023-09-19T11:59:46;3.75;;;1.33;;
12956;SDS011;6543;48.836;10.092;2023-09-19T12:02:14;1.50;;;1.00;;
12956;SDS011;6543;48.836;10.092;2023-09-19T12:04:59;4.18;;;0.75;;
12956;SDS011;6543;48.836;10.092;2023-09-19T12:07:26;0.90;;;0.80;;
12956;SDS011;6543;48.836;10.092;2023-09-19T12:10:03;1.20;;;1.10;;
12956;SDS011;6543;48.836;10.092;2023-09-19T12:12:35;1.17;;;1.00;;
12956;SDS011;6543;48.836;10.092;2023-09-19T12:15:03;1.50;;;1.08;;
12956;SDS011;6543;48.836;10.092;2023-09-19T12:17:35;1.05;;;0.95;;
12956;SDS011;6543;48.836;10.092;2023-09-19T12:20:02;1.42;;;1.15;;
12956;SDS011;6543;48.836;10.092;2023-09-19T12:22:39;5.95;;;0.90;;
12956;SDS011;6543;48.836;10.092;2023-09-19T12:25:07;6.03;;;1.25;;
12956;SDS011;6543;48.836;10.092;2023-09-19T12:27:41;1.08;;;0.98;;
12956;SDS011;6543;48.836;10.092;2023-09-19T12:30:09;4.10;;;1.30;;
12956;SDS011;6543;48.836;10.092;2023-09-19T12:32:39;1.20;;;1.10;;
12956;SDS011;6543;48.836;10.092;2023-09-19T12:35:07;2.45;;;0.98;;
12956;SDS011;6543;48.836;10.092;2023-09-19T12:37:36;1.45;;;0.90;;
12956;SDS011;6543;48.836;10.092;2023-09-19T12:40:04;1.25;;;1.15;;
12956;SDS011;6543;48.836;10.092;2023-09-19T12:42:42;2.15;;;1.08;;
12956;SDS011;6543;48.836;10.092;2023-09-19T12:45:10;2.25;;;1.40;;
12956;SDS011;6543;48.836;10.092;2023-09-19T12:47:38;2.20;;;1.00;;
12956;SDS011;6543;48.836;10.092;2023-09-19T12:50:08;2.05;;;1.20;;
12956;SDS011;6543;48.836;10.092;2023-09-19T12:52:42;1.90;;;1.02;;
12956;SDS011;6543;48.836;10.092;2023-09-19T12:55:22;2.58;;;1.05;;
12956;SDS011;6543;48.836;10.092;2023-09-19T12:58:03;1.85;;;0.95;;
12956;SDS011;6543;48.836;10.092;2023-09-19T13:00:36;1.55;;;1.13;;
12956;SDS011;6543;48.836;10.092;2023-09-19T13:03:14;1.50;;;0.98;;
12956;SDS011;6543;48.836;10.092;2023-09-19T13:05:51;6.72;;;1.15;;
12956;SDS011;6543;48.836;10.092;2023-09-19T13:08:21;2.55;;;1.15;;
12956;SDS011;6543;48.836;10.092;2023-09-19T13:11:07;5.00;;;1.13;;
12956;SDS011;6543;48.836;10.092;2023-09-19T13:13:41;1.75;;;0.80;;
12956;SDS011;6543;48.836;10.092;2023-09-19T13:16:09;2.88;;;1.00;;
12956;SDS011;6543;48.836;10.092;2023-09-19T13:18:43;1.48;;;0.90;;
12956;SDS011;6543;48.836;10.092;2023-09-19T13:21:11;5.32;;;1.48;;
12956;SDS011;6543;48.836;10.092;2023-09-19T13:23:48;2.45;;;1.10;;
12956;SDS011;6543;48.836;10.092;2023-09-19T13:26:16;0.60;;;0.60;;
12956;SDS011;6543;48.836;10.092;2023-09-19T13:28:45;5.88;;;1.23;;
12956;SDS011;6543;48.836;10.092;2023-09-19T13:31:14;1.42;;;0.80;;
12956;SDS011;6543;48.836;10.092;2023-09-19T13:33:44;2.80;;;1.10;;
12956;SDS011;6543;48.836;10.092;2023-09-19T13:36:12;0.88;;;0.80;;
12956;SDS011;6543;48.836;10.092;2023-09-19T13:38:39;0.90;;;0.90;;
12956;SDS011;6543;48.836;10.092;2023-09-19T13:41:08;1.38;;;1.10;;
12956;SDS011;6543;48.836;10.092;2023-09-19T13:43:36;0.73;;;0.68;;
12956;SDS011;6543;48.836;10.092;2023-09-19T13:46:05;1.20;;;0.93;;
12956;SDS011;6543;48.836;10.092;2023-09-19T13:48:37;1.27;;;0.88;;
12956;SDS011;6543;48.836;10.092;2023-09-19T13:51:04;1.77;;;1.00;;
12956;SDS011;6543;48.836;10.092;2023-09-19T13:53:30;2.47;;;1.23;;
12956;SDS011;6543;48.836;10.092;2023-09-19T13:55:57;1.98;;;1.15;;
12956;SDS011;6543;48.836;10.092;2023-09-19T13:58:24;1.15;;;0.90;;
12956;SDS011;6543;48.836;10.092;2023-09-19T14:00:52;1.55;;;1.00;;
12956;SDS011;6543;48.836;10.092;2023-09-19T14:03:22;1.02;;;1.00;;
12956;SDS011;6543;48.836;10.092;2023-09-19T14:05:53;1.73;;;1.15;;
12956;SDS011;6543;48.836;10.092;2023-09-19T14:08:20;3.63;;;0.90;;
12956;SDS011;6543;48.836;10.092;2023-09-19T14:10:48;2.92;;;0.90;;
12956;SDS011;6543;48.836;10.092;2023-09-19T14:13:15;1.77;;;0.90;;
12956;SDS011;6543;48.836;10.092;2023-09-19T14:15:42;3.78;;;1.55;;
12956;SDS011;6543;48.836;10.092;2023-09-19T14:18:09;1.10;;;0.88;;
12956;SDS011;6543;48.836;10.092;2023-09-19T14:20:38;1.00;;;0.90;;
12956;SDS011;6543;48.836;10.092;2023-09-19T14:23:06;1.50;;;0.80;;
12956;SDS011;6543;48.836;10.092;2023-09-19T14:25:35;1.00;;;0.75;;
12956;SDS011;6543;48.836;10.092;2023-09-19T14:28:03;1.58;;;1.40;;
12956;SDS011;6543;48.836;10.092;2023-09-19T14:30:31;1.77;;;0.90;;
12956;SDS011;6543;48.836;10.092;2023-09-19T14:32:58;1.10;;;1.00;;
12956;SDS011;6543;48.836;10.092;2023-09-19T14:35:27;1.25;;;0.88;;
12956;SDS011;6543;48.836;10.092;2023-09-19T14:37:58;2.25;;;0.88;;
12956;SDS011;6543;48.836;10.092;2023-09-19T14:40:25;1.88;;;1.08;;
12956;SDS011;6543;48.836;10.092;2023-09-19T14:42:52;1.00;;;0.90;;
12956;SDS011;6543;48.836;10.092;2023-09-19T14:45:19;3.38;;;0.98;;
12956;SDS011;6543;48.836;10.092;2023-09-19T14:47:46;1.90;;;1.13;;
12956;SDS011;6543;48.836;10.092;2023-09-19T14:50:13;2.08;;;0.93;;
12956;SDS011;6543;48.836;10.092;2023-09-19T14:52:40;1.45;;;1.25;;
12956;SDS011;6543;48.836;10.092;2023-09-19T14:55:09;1.52;;;1.17;;
12956;SDS011;6543;48.836;10.092;2023-09-19T14:57:40;1.65;;;1.05;;
12956;SDS011;6543;48.836;10.092;2023-09-19T15:00:10;2.00;;;1.10;;
12956;SDS011;6543;48.836;10.092;2023-09-19T15:02:38;2.30;;;0.85;;
12956;SDS011;6543;48.836;10.092;2023-09-19T15:05:06;1.70;;;1.00;;
12956;SDS011;6543;48.836;10.092;2023-09-19T15:07:34;1.83;;;1.10;;
12956;SDS011;6543;48.836;10.092;2023-09-19T15:10:03;2.70;;;1.10;;
12956;SDS011;6543;48.836;10.092;2023-09-19T15:12:33;2.03;;;1.05;;
12956;SDS011;6543;48.836;10.092;2023-09-19T15:15:02;1.30;;;0.93;;
12956;SDS011;6543;48.836;10.092;2023-09-19T15:17:30;2.42;;;1.20;;
12956;SDS011;6543;48.836;10.092;2023-09-19T15:19:57;1.13;;;1.02;;